Time;durP1;ratioP1;P1;durP2;ratioP2;P2;SDS_P1;SDS_P2;PMS_P1;PMS_P2;Temp;Humidity;BMP_temperature;BMP_pressure;BME280_temperature;BME280_humidity;BME280_pressure;Samples;Min_cycle;Max_cycle;Signal;HPM_P1;HPM_P2
2022/01/18 00:00:35;;;;;;;13.85;1.85;;;;;;;-0.65;84.78;102668.00;4943798;29;20496;-80
2022/01/18 00:03:01;;;;;;;9.55;1.30;;;;;;;-0.64;84.80;102672.34;4925934;29;20075;-79
2022/01/18 00:05:27;;;;;;;14.18;1.40;;;;;;;-0.61;84.58;102668.69;4944081;29;20107;-81
2022/01/18 00:07:52;;;;;;;14.52;1.60;;;;;;;-0.59;84.56;102666.81;4942244;29;20075;-80
2022/01/18 00:10:18;;;;;;;10.15;1.50;;;;;;;-0.57;84.73;102673.72;4924961;29;20043;-80
2022/01/18 00:13:06;;;;;;;15.68;3.78;;;;;;;-0.63;84.97;102667.91;4940836;29;20075;-79
2022/01/18 00:15:42;;;;;;;;;;;;;;;-0.84;84.66;102670.72;4940248;29;20106;-79
2022/01/18 00:18:11;;;;;;;12.57;2.60;;;;;;;-0.96;85.37;102688.09;4940717;29;20001;-80
2022/01/18 00:21:09;;;;;;;9.07;2.15;;;;;;;-1.01;85.16;102687.44;4938992;29;20045;-80
2022/01/18 00:23:37;;;;;;;8.93;2.00;;;;;;;-1.04;85.63;102684.09;4937609;29;20031;-80
2022/01/18 00:26:05;;;;;;;14.38;2.20;;;;;;;-1.02;85.56;102690.19;4938991;29;20038;-80
2022/01/18 00:28:31;;;;;;;30.92;15.80;;;;;;;-0.99;85.72;102688.25;4936867;29;20024;-79
2022/01/18 00:39:11;;;;;;;15.82;2.90;;;;;;;-1.14;85.90;102683.72;4886939;29;20041;-79
2022/01/18 00:41:38;;;;;;;13.18;2.53;;;;;;;-1.15;85.96;102691.72;4922323;29;20044;-79
2022/01/18 00:44:06;;;;;;;11.15;2.72;;;;;;;-1.19;86.38;102699.81;4939127;29;20087;-78
2022/01/18 00:46:31;;;;;;;11.32;2.60;;;;;;;-1.28;86.52;102688.84;4921676;29;20537;-79
2022/01/18 00:49:00;;;;;;;14.85;2.85;;;;;;;-1.26;86.47;102694.88;4938835;29;20115;-78
2022/01/18 00:51:27;;;;;;;10.85;2.10;;;;;;;-1.33;86.53;102696.97;4938322;29;20027;-79
2022/01/18 00:53:52;;;;;;;13.85;2.10;;;;;;;-1.34;86.95;102699.69;4938416;29;20050;-79
2022/01/18 00:56:30;;;;;;;16.35;2.17;;;;;;;-1.45;87.02;102687.03;4938487;29;20469;-78
2022/01/18 00:58:56;;;;;;;11.15;1.83;;;;;;;-1.32;86.94;102695.22;4921702;29;20102;-79
2022/01/18 01:01:24;;;;;;;10.55;1.70;;;;;;;-1.25;86.95;102688.69;4921815;29;20032;-79
2022/01/18 01:03:51;;;;;;;15.55;1.60;;;;;;;-1.14;87.27;102691.63;4922119;29;20019;-79
2022/01/18 01:06:17;;;;;;;14.70;1.90;;;;;;;-1.13;86.98;102703.06;4940657;29;20425;-79
2022/01/18 01:08:43;;;;;;;12.18;1.70;;;;;;;-1.11;87.20;102706.50;4922692;29;20031;-79
2022/01/18 01:11:10;;;;;;;11.27;1.80;;;;;;;-1.21;87.73;102714.88;4937160;29;20106;-80
2022/01/18 01:13:42;;;;;;;9.63;2.15;;;;;;;-1.32;87.36;102706.63;4938386;29;20063;-79
2022/01/18 01:19:03;;;;;;;10.18;2.10;;;;;;;-1.53;87.80;102711.16;4922967;29;20046;-79
2022/01/18 01:35:06;;;;;;;15.63;1.90;;;;;;;-1.42;88.20;102703.56;4938975;29;20062;-79
2022/01/18 01:43:14;;;;;;;14.63;1.60;;;;;;;-1.44;88.16;102694.00;4945193;29;20035;-79
2022/01/18 01:45:40;;;;;;;18.90;2.03;;;;;;;-1.43;88.37;102699.19;4908187;29;20035;-79
2022/01/18 01:48:07;;;;;;;10.93;1.90;;;;;;;-1.42;88.41;102693.00;4937535;29;20032;-79
2022/01/18 01:50:45;;;;;;;13.48;1.58;;;;;;;-1.45;88.67;102687.88;4935978;29;20036;-79
2022/01/18 01:53:12;;;;;;;12.60;1.52;;;;;;;-1.50;88.34;102687.25;4936361;29;20035;-79
2022/01/18 01:55:38;;;;;;;14.45;1.77;;;;;;;-1.53;88.79;102687.38;4936589;29;20426;-79
2022/01/18 01:58:04;;;;;;;15.48;1.80;;;;;;;-1.52;88.92;102689.13;4936274;29;20373;-79
2022/01/18 02:00:31;;;;;;;15.65;2.10;;;;;;;-1.51;88.84;102684.69;4936199;29;20039;-79
2022/01/18 02:02:57;;;;;;;12.50;1.70;;;;;;;-1.52;89.07;102668.00;4921775;29;20388;-79
2022/01/18 02:05:23;;;;;;;11.85;1.45;;;;;;;-1.52;89.37;102680.34;4888920;29;20032;-79
2022/01/18 02:07:49;;;;;;;8.32;1.80;;;;;;;-1.61;89.30;102671.06;4937591;29;20038;-79
2022/01/18 02:10:16;;;;;;;8.95;1.95;;;;;;;-1.79;89.76;102677.22;4936092;29;20034;-79
2022/01/18 02:12:42;;;;;;;12.32;2.03;;;;;;;-1.84;89.94;102685.38;4936896;29;20432;-79
2022/01/18 02:15:17;;;;;;;10.23;2.17;;;;;;;-1.86;89.89;102686.38;4936961;29;20024;-79
2022/01/18 02:23:29;;;;;;;11.70;2.42;;;;;;;-1.87;90.24;102685.50;4918033;29;20533;-79
2022/01/18 02:25:56;;;;;;;12.93;1.95;;;;;;;-1.85;89.98;102673.13;4902488;29;20052;-79
2022/01/18 02:28:23;;;;;;;19.10;2.15;;;;;;;-1.74;90.17;102669.97;4927820;29;20024;-79
2022/01/18 02:30:49;;;;;;;18.52;1.70;;;;;;;-1.65;90.72;102669.53;4937221;29;20552;-79
2022/01/18 02:33:15;;;;;;;16.55;1.80;;;;;;;-1.57;90.14;102677.06;4920420;29;20031;-79
2022/01/18 02:35:41;;;;;;;11.48;1.90;;;;;;;-1.52;90.60;102670.63;4920195;29;20024;-79
2022/01/18 02:38:07;;;;;;;14.75;2.25;;;;;;;-1.42;90.19;102677.16;4941742;29;20580;-79
2022/01/18 02:40:33;;;;;;;10.45;1.65;;;;;;;-1.30;90.71;102680.13;4941141;29;20524;-79
2022/01/18 02:43:46;;;;;;;12.25;1.85;;;;;;;-1.17;90.85;102681.22;4943080;29;20039;-79
2022/01/18 02:45:50;;;;;;;19.85;2.30;;;;;;;-1.09;90.77;102684.34;4945913;29;20038;-80
2022/01/18 02:48:16;;;;;;;23.80;2.80;;;;;;;-1.01;90.87;102690.09;4948437;29;20027;-80
2022/01/18 02:50:41;;;;;;;18.27;2.30;;;;;;;-0.93;90.87;102694.13;4911960;29;20032;-79
2022/01/18 02:53:11;;;;;;;20.67;2.40;;;;;;;-0.88;90.85;102706.19;4923492;29;20032;-79
2022/01/18 02:55:36;;;;;;;19.40;2.03;;;;;;;-0.87;91.15;102710.53;4923600;29;20042;-79
2022/01/18 02:58:07;;;;;;;11.82;2.33;;;;;;;-0.91;91.57;102697.56;4923943;29;20032;-79
2022/01/18 03:00:44;;;;;;;12.60;2.20;;;;;;;-0.84;91.12;102707.72;4921927;29;20024;-79
2022/01/18 03:03:15;;;;;;;8.73;2.15;;;;;;;-0.75;91.25;102703.78;4926162;29;20130;-79
2022/01/18 03:05:42;;;;;;;14.13;2.50;;;;;;;-0.69;90.93;102714.03;4940833;29;20035;-79
2022/01/18 03:08:09;;;;;;;16.17;2.80;;;;;;;-0.71;91.38;102713.25;4941534;29;20072;-79
2022/01/18 03:10:35;;;;;;;19.77;2.72;;;;;;;-0.68;91.52;102714.88;4945577;29;20031;-80
2022/01/18 03:13:00;;;;;;;16.02;2.70;;;;;;;-0.65;91.70;102723.50;4924285;29;20377;-79
2022/01/18 03:15:26;;;;;;;11.50;2.42;;;;;;;-0.64;91.67;102722.56;4924748;29;20031;-78
2022/01/18 03:17:51;;;;;;;13.43;2.85;;;;;;;-0.61;91.50;102727.69;4943224;29;20135;-79
2022/01/18 03:20:19;;;;;;;19.60;2.53;;;;;;;-0.57;91.74;102728.38;4942799;29;20024;-79
2022/01/18 03:22:46;;;;;;;9.40;2.08;;;;;;;-0.57;91.53;102729.25;4908637;29;20080;-79
2022/01/18 03:25:38;;;;;;;11.13;2.63;;;;;;;-0.57;91.48;102737.16;4925392;29;20038;-79
2022/01/18 03:28:06;;;;;;;17.60;2.97;;;;;;;-0.58;91.57;102748.69;4914683;29;20062;-80
2022/01/18 03:30:31;;;;;;;16.33;2.10;;;;;;;-0.59;91.97;102749.63;4928647;29;20035;-79
2022/01/18 03:32:56;;;;;;;13.40;2.53;;;;;;;-0.67;92.17;102733.28;4919257;29;20395;-79
2022/01/18 03:35:23;;;;;;;17.08;2.60;;;;;;;-0.72;92.56;102745.91;4920496;29;20455;-78
2022/01/18 03:37:48;;;;;;;13.70;2.65;;;;;;;-0.71;92.63;102748.47;4918857;29;20035;-79
2022/01/18 03:40:14;;;;;;;8.75;2.05;;;;;;;-0.67;92.47;102743.03;4920263;29;20028;-79
2022/01/18 03:42:45;;;;;;;18.23;2.55;;;;;;;-0.65;92.71;102744.66;4919190;29;20047;-79
2022/01/18 03:45:14;;;;;;;14.65;2.33;;;;;;;-0.69;92.61;102734.34;4919924;29;20053;-79
2022/01/18 03:47:40;;;;;;;17.95;2.55;;;;;;;-0.72;92.62;102735.34;4918182;29;20052;-78
2022/01/18 03:50:07;;;;;;;12.77;2.20;;;;;;;-0.64;92.54;102746.34;4919357;29;20488;-79
2022/01/18 03:52:35;;;;;;;12.25;3.35;;;;;;;-0.66;93.20;102740.31;4918011;29;20103;-79
2022/01/18 03:55:01;;;;;;;10.75;2.53;;;;;;;-0.66;93.22;102740.31;4919993;29;20032;-79
2022/01/18 03:57:27;;;;;;;13.90;2.58;;;;;;;-0.64;93.59;102737.56;4919180;29;20115;-78
2022/01/18 03:59:52;;;;;;;18.25;2.42;;;;;;;-0.58;93.63;102748.69;4919909;29;20446;-79
2022/01/18 04:02:18;;;;;;;15.02;2.35;;;;;;;-0.54;93.01;102742.31;4918691;29;20031;-79
2022/01/18 04:04:43;;;;;;;19.02;2.67;;;;;;;-0.46;93.40;102739.28;4901921;29;20461;-79
2022/01/18 04:07:09;;;;;;;13.27;2.20;;;;;;;-0.42;93.30;102735.53;4918521;29;20043;-79
2022/01/18 04:09:35;;;;;;;13.95;2.58;;;;;;;-0.41;93.78;102715.22;4901166;29;20088;-79
2022/01/18 04:12:01;;;;;;;19.00;2.45;;;;;;;-0.38;93.85;102718.56;4903171;29;20076;-79
2022/01/18 04:14:27;;;;;;;15.80;2.30;;;;;;;-0.39;94.32;102719.50;4886382;29;20083;-80
2022/01/18 04:17:16;;;;;;;12.95;2.42;;;;;;;-0.31;94.23;102730.53;4900663;29;20039;-79
2022/01/18 04:27:43;;;;;;;10.80;2.38;;;;;;;-0.52;95.28;102715.81;4938706;29;20035;-79
2022/01/18 04:30:09;;;;;;;14.02;2.53;;;;;;;-0.51;95.20;102722.78;4937159;29;20036;-79
2022/01/18 04:32:34;;;;;;;14.65;2.40;;;;;;;-0.44;95.13;102734.75;4936066;29;20043;-79
2022/01/18 04:34:59;;;;;;;17.00;2.83;;;;;;;-0.75;95.48;102678.19;4936458;29;20070;-79
2022/01/18 04:37:25;;;;;;;12.32;2.50;;;;;;;-0.34;95.75;102738.63;4937541;29;20450;-79
2022/01/18 04:39:51;;;;;;;12.40;2.35;;;;;;;-0.28;95.66;102734.81;4936469;29;20046;-79
2022/01/18 04:42:32;;;;;;;15.88;2.15;;;;;;;-0.27;95.71;102732.06;4937716;29;20039;-79
2022/01/18 04:50:26;;;;;;;16.42;2.75;;;;;;;-0.29;96.09;102728.66;4940020;29;20082;-79
2022/01/18 04:52:51;;;;;;;15.00;2.40;;;;;;;-0.30;96.32;102731.38;4943860;29;20048;-79
2022/01/18 04:55:18;;;;;;;21.45;2.83;;;;;;;-0.30;96.59;102728.72;4942903;29;20110;-79
2022/01/18 04:57:53;;;;;;;12.75;2.63;;;;;;;-0.32;96.54;102725.34;4941968;29;20035;-79
2022/01/18 05:00:22;;;;;;;12.65;2.33;;;;;;;-0.34;96.57;102721.91;4943797;29;20033;-79
2022/01/18 05:02:48;;;;;;;16.70;3.28;;;;;;;-0.43;96.86;102706.50;4937634;29;20070;-78
2022/01/18 05:05:23;;;;;;;15.18;3.30;;;;;;;-0.41;96.87;102717.88;4941820;29;20055;-79
2022/01/18 05:07:49;;;;;;;22.63;3.72;;;;;;;-0.42;96.82;102716.19;4929169;29;20509;-79
2022/01/18 05:10:19;;;;;;;18.75;3.70;;;;;;;-0.48;97.20;102704.13;4946037;29;20036;-78
2022/01/18 05:12:47;;;;;;;13.50;4.07;;;;;;;-0.49;96.96;102705.91;4925372;29;20358;-79
2022/01/18 05:23:13;;;;;;;16.63;3.30;;;;;;;-0.63;97.73;102671.41;4936231;29;20151;-79
2022/01/18 05:25:38;;;;;;;19.33;3.25;;;;;;;-0.43;97.71;102688.00;4938663;29;20114;-79
2022/01/18 05:28:06;;;;;;;16.15;3.00;;;;;;;-0.62;97.80;102673.13;4903356;29;20027;-78
2022/01/18 05:30:31;;;;;;;12.77;2.20;;;;;;;-0.47;97.92;102693.44;4935272;29;20032;-78
2022/01/18 05:32:58;;;;;;;12.45;2.17;;;;;;;-0.47;97.92;102693.44;4919405;29;20050;-78
2022/01/18 05:35:25;;;;;;;16.85;2.47;;;;;;;-0.47;97.94;102693.44;4919701;29;20094;-79
2022/01/18 05:37:51;;;;;;;19.60;2.50;;;;;;;-0.45;98.40;102689.88;4936683;29;20039;-78
2022/01/18 05:40:18;;;;;;;16.77;2.70;;;;;;;-0.57;98.34;102670.22;4936603;29;20111;-79
2022/01/18 05:42:44;;;;;;;13.45;2.33;;;;;;;-0.52;98.42;102687.56;4923877;29;20066;-79
2022/01/18 05:45:11;;;;;;;16.15;2.22;;;;;;;-0.48;98.68;102702.31;4936450;29;20043;-79
2022/01/18 05:47:38;;;;;;;12.52;2.25;;;;;;;-0.45;98.87;102700.47;4939724;29;20031;-78
2022/01/18 05:50:05;;;;;;;15.40;2.63;;;;;;;-0.42;98.11;102708.25;4943385;29;20077;-79
2022/01/18 05:52:31;;;;;;;18.95;3.35;;;;;;;-0.45;98.90;102701.31;4928978;29;20361;-79
2022/01/18 05:54:56;;;;;;;21.05;3.30;;;;;;;-0.39;98.79;102711.56;4943875;29;20031;-78
2022/01/18 05:57:22;;;;;;;25.45;3.00;;;;;;;-0.37;98.81;102700.91;4949052;29;20401;-82
2022/01/18 05:59:48;;;;;;;16.23;2.78;;;;;;;-0.35;98.58;102712.25;4945708;29;20417;-80
2022/01/18 06:02:24;;;;;;;13.63;2.28;;;;;;;-0.39;98.93;102700.16;4927488;29;20042;-78
2022/01/18 06:07:33;;;;;;;13.90;2.30;;;;;;;-0.30;98.74;102707.56;4932630;29;20043;-78
2022/01/18 06:10:00;;;;;;;11.88;2.22;;;;;;;-0.23;99.11;102714.28;4948227;28;20028;-78
2022/01/18 06:12:27;;;;;;;18.48;2.83;;;;;;;-0.25;99.43;102716.13;4939828;29;20031;-77
2022/01/18 06:14:53;;;;;;;19.48;2.40;;;;;;;-0.22;99.34;102717.75;4938565;29;20525;-77
2022/01/18 06:17:18;;;;;;;18.33;2.65;;;;;;;-0.19;99.85;102717.59;4937091;29;20114;-77
2022/01/18 06:19:44;;;;;;;18.83;3.28;;;;;;;-0.20;99.90;102711.44;4939209;29;20027;-77
2022/01/18 06:22:09;;;;;;;20.60;2.92;;;;;;;-0.22;100.00;102708.03;4945355;29;20055;-76
2022/01/18 06:24:35;;;;;;;16.92;2.60;;;;;;;-0.27;99.91;102702.97;4934478;29;20032;-77
2022/01/18 06:27:00;;;;;;;17.75;2.47;;;;;;;-0.20;100.00;102702.66;4936626;29;20040;-77
2022/01/18 06:29:26;;;;;;;13.50;2.92;;;;;;;-0.11;100.00;102710.09;4923573;29;20023;-77
2022/01/18 06:31:51;;;;;;;16.25;2.70;;;;;;;-0.09;100.00;102702.94;4926621;29;20595;-77
2022/01/18 06:34:17;;;;;;;13.82;2.83;;;;;;;-0.10;100.00;102693.28;4939482;29;20032;-77
2022/01/18 06:36:43;;;;;;;17.42;2.65;;;;;;;-0.01;100.00;102698.91;4934833;29;20090;-77
2022/01/18 06:39:08;;;;;;;14.82;3.03;;;;;;;0.02;100.00;102699.69;4938792;29;20090;-77
2022/01/18 06:41:34;;;;;;;15.48;2.70;;;;;;;0.07;100.00;102703.81;4920067;29;20093;-77
2022/01/18 06:43:59;;;;;;;22.27;3.50;;;;;;;0.09;100.00;102701.91;4936245;29;20127;-77
2022/01/18 06:46:25;;;;;;;16.35;3.13;;;;;;;0.11;100.00;102699.19;4946838;29;20036;-77
2022/01/18 06:48:50;;;;;;;16.02;3.78;;;;;;;0.16;100.00;102699.78;4946087;29;20055;-77
2022/01/18 06:51:16;;;;;;;14.32;3.20;;;;;;;0.18;100.00;102704.06;4948233;29;20042;-77
2022/01/18 06:53:46;;;;;;;10.95;2.38;;;;;;;0.15;100.00;102695.44;4948772;29;20039;-77
2022/01/18 06:56:13;;;;;;;15.82;2.88;;;;;;;0.20;100.00;102704.00;4940545;29;20072;-77
2022/01/18 06:58:39;;;;;;;22.00;3.20;;;;;;;0.16;100.00;102678.59;4936855;29;20098;-77
2022/01/18 07:01:05;;;;;;;24.08;2.58;;;;;;;0.26;100.00;102685.09;4918459;29;20110;-77
2022/01/18 07:03:31;;;;;;;13.30;2.55;;;;;;;0.32;100.00;102676.81;4936252;29;20019;-78
2022/01/18 07:05:56;;;;;;;17.05;2.60;;;;;;;0.32;100.00;102663.56;4921402;29;20404;-78
2022/01/18 07:08:21;;;;;;;28.67;3.67;;;;;;;0.45;100.00;102656.63;4937761;29;20040;-77
2022/01/18 07:10:47;;;;;;;21.95;2.80;;;;;;;0.49;100.00;102662.59;4919877;29;20035;-77
2022/01/18 07:13:14;;;;;;;24.00;3.17;;;;;;;0.54;100.00;102657.06;4926103;29;20027;-78
2022/01/18 07:15:40;;;;;;;27.23;3.20;;;;;;;0.61;100.00;102661.06;4930425;29;20039;-78
2022/01/18 07:18:06;;;;;;;20.02;3.15;;;;;;;0.66;100.00;102664.28;4945181;29;20444;-77
2022/01/18 07:20:32;;;;;;;26.42;3.67;;;;;;;0.71;100.00;102662.22;4912831;29;20094;-78
2022/01/18 07:22:58;;;;;;;27.65;3.85;;;;;;;0.77;100.00;102650.44;4906367;29;20056;-77
2022/01/18 07:25:26;;;;;;;22.63;4.07;;;;;;;0.79;100.00;102649.38;4920110;29;20387;-77
2022/01/18 07:27:52;;;;;;;30.77;3.80;;;;;;;0.80;100.00;102655.56;4920400;29;20043;-77
2022/01/18 07:30:17;;;;;;;23.00;3.15;;;;;;;0.84;100.00;102652.63;4920639;29;20114;-78
2022/01/18 07:32:43;;;;;;;33.13;4.13;;;;;;;0.86;100.00;102645.44;4901354;29;20029;-79
2022/01/18 07:35:11;;;;;;;29.38;4.60;;;;;;;0.89;100.00;102660.28;4920852;29;20028;-79
2022/01/18 07:37:37;;;;;;;33.72;4.43;;;;;;;0.91;100.00;102648.66;4921492;29;20019;-79
2022/01/18 07:40:04;;;;;;;25.38;4.43;;;;;;;0.98;100.00;102653.59;4920774;29;20032;-79
2022/01/18 07:42:30;;;;;;;28.80;4.18;;;;;;;0.99;100.00;102652.66;4921128;29;20477;-79
2022/01/18 07:44:55;;;;;;;36.00;4.50;;;;;;;1.02;100.00;102655.97;4921015;29;20032;-79
2022/01/18 07:47:21;;;;;;;30.70;3.78;;;;;;;1.06;100.00;102656.63;4921288;29;20111;-79
2022/01/18 07:49:47;;;;;;;37.63;4.90;;;;;;;1.13;100.00;102663.31;4922346;29;20028;-80
2022/01/18 07:52:12;;;;;;;38.17;3.88;;;;;;;1.18;100.00;102666.50;4906034;29;20040;-78
2022/01/18 07:54:38;;;;;;;27.60;4.40;;;;;;;1.21;100.00;102666.34;4889754;29;20067;-79
2022/01/18 07:57:03;;;;;;;26.25;4.15;;;;;;;1.30;100.00;102665.78;4885282;29;20088;-79
2022/01/18 07:59:29;;;;;;;32.92;5.85;;;;;;;1.39;100.00;102669.66;4918385;29;20052;-79
2022/01/18 08:01:55;;;;;;;39.97;6.00;;;;;;;1.44;100.00;102672.91;4918262;29;20390;-79
2022/01/18 08:04:21;;;;;;;36.80;9.77;;;;;;;1.45;100.00;102668.44;4901751;29;20079;-78
2022/01/18 08:06:46;;;;;;;42.17;9.70;;;;;;;1.49;100.00;102664.63;4901072;29;20128;-79
2022/01/18 08:09:11;;;;;;;42.47;9.23;;;;;;;1.53;100.00;102671.50;4917382;29;20119;-79
2022/01/18 08:11:37;;;;;;;37.40;5.35;;;;;;;1.63;100.00;102677.94;4918968;29;20035;-79
2022/01/18 08:14:03;;;;;;;35.13;6.30;;;;;;;1.64;100.00;102674.31;4886018;29;20122;-79
2022/01/18 08:18:56;;;;;;;29.55;5.50;;;;;;;1.73;100.00;102671.09;4918714;29;20032;-79
2022/01/18 08:21:22;;;;;;;28.40;5.00;;;;;;;1.78;100.00;102671.66;4923804;29;20477;-79
2022/01/18 08:23:50;;;;;;;33.55;5.57;;;;;;;1.92;100.00;102675.25;4936400;29;20119;-79
2022/01/18 08:26:15;;;;;;;29.58;4.07;;;;;;;1.98;100.00;102667.75;4933032;29;20126;-78
2022/01/18 08:28:41;;;;;;;38.45;4.95;;;;;;;2.05;100.00;102669.09;4937520;29;20489;-79
2022/01/18 08:31:06;;;;;;;31.50;4.13;;;;;;;2.07;100.00;102674.28;4919380;29;20035;-79
2022/01/18 08:33:32;;;;;;;34.80;5.00;;;;;;;2.11;100.00;102673.97;4936919;29;20446;-79
2022/01/18 08:36:04;;;;;;;31.58;4.13;;;;;;;2.17;100.00;102671.88;4938173;29;20028;-79
2022/01/18 08:38:30;;;;;;;39.45;4.45;;;;;;;2.20;100.00;102667.22;4937305;29;20036;-79
2022/01/18 08:40:58;;;;;;;31.05;4.10;;;;;;;2.18;100.00;102658.50;4936627;29;20047;-79
2022/01/18 08:43:25;;;;;;;32.22;3.78;;;;;;;2.24;100.00;102651.94;4938213;29;20027;-79
2022/01/18 08:45:51;;;;;;;30.52;3.90;;;;;;;2.27;100.00;102657.91;4940554;29;20046;-79
2022/01/18 08:48:16;;;;;;;35.88;4.35;;;;;;;2.37;100.00;102652.00;4941018;29;20039;-79
2022/01/18 08:50:42;;;;;;;31.20;3.90;;;;;;;2.41;100.00;102654.34;4933363;29;20386;-79
2022/01/18 08:53:08;;;;;;;40.42;3.92;;;;;;;2.48;100.00;102645.00;4936901;29;20589;-79
2022/01/18 08:55:34;;;;;;;41.58;4.70;;;;;;;2.62;100.00;102654.75;4936864;29;20118;-79
2022/01/18 08:58:01;;;;;;;25.35;3.58;;;;;;;2.72;100.00;102647.88;4920587;29;20039;-79
2022/01/18 09:00:27;;;;;;;42.53;4.72;;;;;;;2.91;100.00;102650.13;4923726;29;20046;-78
2022/01/18 09:02:53;;;;;;;32.83;3.55;;;;;;;3.04;100.00;102642.16;4937177;29;20036;-79
2022/01/18 09:05:22;;;;;;;31.60;5.38;;;;;;;3.12;100.00;102634.53;4941021;29;20123;-80
2022/01/18 09:07:48;;;;;;;32.33;5.70;;;;;;;3.26;100.00;102647.72;4937603;29;20086;-78
2022/01/18 09:10:14;;;;;;;31.25;4.93;;;;;;;3.41;100.00;102650.25;4919978;29;20442;-79
2022/01/18 09:12:39;;;;;;;39.67;5.70;;;;;;;3.49;100.00;102638.13;4935796;29;20059;-79
2022/01/18 09:15:07;;;;;;;30.90;4.90;;;;;;;3.62;100.00;102643.44;4920427;29;20028;-79
2022/01/18 09:17:39;;;;;;;33.53;3.72;;;;;;;3.72;100.00;102633.84;4903649;29;20539;-79
2022/01/18 09:20:06;;;;;;;36.78;3.70;;;;;;;3.84;100.00;102626.81;4920203;29;20040;-79
2022/01/18 09:22:38;;;;;;;26.70;3.22;;;;;;;3.93;100.00;102638.59;4936864;29;20559;-79
2022/01/18 09:25:06;;;;;;;34.42;4.03;;;;;;;4.11;100.00;102639.94;4939832;29;20055;-79
2022/01/18 09:27:32;;;;;;;44.45;4.78;;;;;;;4.07;100.00;102618.94;4936508;29;20031;-79
2022/01/18 09:29:57;;;;;;;38.47;3.58;;;;;;;4.31;100.00;102638.47;4936539;29;20090;-80
2022/01/18 09:32:23;;;;;;;33.35;3.60;;;;;;;4.41;100.00;102631.50;4919603;29;20051;-79
2022/01/18 09:34:51;;;;;;;29.90;3.28;;;;;;;4.48;100.00;102631.88;4936753;29;20032;-79
2022/01/18 09:37:17;;;;;;;38.53;4.10;;;;;;;4.51;100.00;102629.00;4936666;29;20454;-79
2022/01/18 09:39:42;;;;;;;33.92;3.97;;;;;;;4.60;100.00;102636.31;4937203;29;20051;-79
2022/01/18 09:42:11;;;;;;;41.22;3.90;;;;;;;4.62;100.00;102644.19;4936107;29;20179;-79
2022/01/18 09:44:37;;;;;;;38.25;4.20;;;;;;;4.64;100.00;102637.78;4936242;29;20391;-79
2022/01/18 09:47:04;;;;;;;32.95;3.78;;;;;;;4.70;100.00;102642.66;4935969;29;20051;-79
2022/01/18 09:49:29;;;;;;;47.95;5.07;;;;;;;4.77;100.00;102644.81;4937455;29;20047;-79
2022/01/18 09:51:55;;;;;;;39.50;4.10;;;;;;;4.85;100.00;102640.63;4937207;29;20031;-80
2022/01/18 09:54:20;;;;;;;35.70;3.65;;;;;;;4.96;100.00;102647.81;4921353;29;20031;-79
2022/01/18 09:56:45;;;;;;;38.30;3.58;;;;;;;4.97;100.00;102633.53;4936039;29;20051;-79
2022/01/18 09:59:11;;;;;;;36.72;3.30;;;;;;;5.07;100.00;102647.84;4937390;29;20038;-79
2022/01/18 10:01:36;;;;;;;35.30;3.88;;;;;;;5.15;100.00;102645.44;4921505;29;20039;-78
2022/01/18 10:04:22;;;;;;;34.08;2.95;;;;;;;5.33;100.00;102655.63;4921388;29;20056;-80
2022/01/18 10:06:50;;;;;;;36.97;3.83;;;;;;;5.40;100.00;102659.56;4940443;29;20041;-79
2022/01/18 10:09:18;;;;;;;37.10;3.03;;;;;;;5.47;100.00;102652.75;4940499;29;20020;-79
2022/01/18 10:12:12;;;;;;;27.95;3.15;;;;;;;5.59;100.00;102650.94;4941631;29;20053;-80
2022/01/18 10:14:40;;;;;;;37.43;5.27;;;;;;;5.62;100.00;102648.03;4950639;29;20058;-79
2022/01/18 10:17:08;;;;;;;27.55;2.90;;;;;;;5.68;100.00;102652.88;4922392;29;20421;-81
2022/01/18 10:19:43;;;;;;;28.40;3.03;;;;;;;5.72;100.00;102653.47;4935495;29;20094;-80
2022/01/18 10:22:18;;;;;;;22.50;3.30;;;;;;;5.79;100.00;102652.88;4936182;29;20051;-80
2022/01/18 10:24:44;;;;;;;25.33;2.55;;;;;;;5.86;100.00;102658.56;4935614;29;20066;-80
2022/01/18 10:27:12;;;;;;;36.13;3.38;;;;;;;5.92;100.00;102660.75;4934772;29;20043;-80
2022/01/18 10:29:44;;;;;;;30.23;3.30;;;;;;;5.93;100.00;102659.84;4918501;29;20578;-79
2022/01/18 10:37:17;;;;;;;24.10;3.00;;;;;;;5.98;100.00;102659.44;4936243;29;20034;-80
2022/01/18 10:39:49;;;;;;;25.10;2.58;;;;;;;6.01;100.00;102654.69;4940095;29;20480;-81
2022/01/18 10:42:20;;;;;;;35.00;4.30;;;;;;;6.00;100.00;102654.84;4928462;29;20114;-80
2022/01/18 10:45:03;;;;;;;26.73;2.88;;;;;;;6.04;100.00;102649.13;4937451;29;20473;-81
2022/01/18 10:47:30;;;;;;;23.27;2.67;;;;;;;6.13;100.00;102649.34;4936480;29;20099;-81
2022/01/18 10:49:57;;;;;;;23.83;3.03;;;;;;;6.14;100.00;102657.25;4934866;29;20031;-79
2022/01/18 10:52:27;;;;;;;20.23;2.90;;;;;;;6.20;100.00;102662.09;4935115;29;20055;-82
2022/01/18 10:55:00;;;;;;;20.98;2.40;;;;;;;6.22;100.00;102669.97;4901682;29;20028;-80
2022/01/18 10:57:28;;;;;;;13.50;2.20;;;;;;;6.20;100.00;102667.44;4933812;29;20442;-80
2022/01/18 11:00:08;;;;;;;22.23;2.90;;;;;;;6.26;100.00;102666.09;4938597;29;20046;-80
2022/01/18 11:02:36;;;;;;;20.10;2.28;;;;;;;6.23;100.00;102674.38;4942178;29;20032;-80
2022/01/18 11:05:13;;;;;;;24.52;2.88;;;;;;;6.11;100.00;102652.13;4946565;29;20092;-82
2022/01/18 11:07:39;;;;;;;23.45;2.97;;;;;;;6.25;100.00;102654.53;4950399;29;20110;-83
2022/01/18 11:10:06;;;;;;;26.65;3.17;;;;;;;6.24;100.00;102643.97;4949253;29;20051;-85
2022/01/18 11:12:46;;;;;;;37.38;3.60;;;;;;;6.28;100.00;102659.63;4949331;29;20039;-82
2022/01/18 11:15:18;;;;;;;22.35;2.97;;;;;;;6.31;100.00;102642.50;4933435;29;20087;-84
2022/01/18 11:17:50;;;;;;;25.20;3.60;;;;;;;6.33;100.00;102645.91;4933336;29;20023;-83
2022/01/18 11:20:18;;;;;;;24.38;3.88;;;;;;;6.41;100.00;102645.25;4948275;29;20023;-85
2022/01/18 11:22:44;;;;;;;28.05;3.85;;;;;;;6.38;100.00;102627.63;4950529;29;20055;-86
2022/01/18 11:25:10;;;;;;;19.67;2.80;;;;;;;6.41;100.00;102654.13;4947817;29;20036;-82
2022/01/18 11:27:36;;;;;;;25.15;3.08;;;;;;;6.41;100.00;102638.09;4944305;29;20542;-82
2022/01/18 11:30:03;;;;;;;22.88;2.75;;;;;;;6.41;100.00;102638.09;4967220;29;20381;-84
2022/01/18 11:32:29;;;;;;;18.15;2.72;;;;;;;6.44;100.00;102626.28;4956415;29;20036;-84
2022/01/18 11:34:57;;;;;;;16.58;3.05;;;;;;;6.47;100.00;102629.56;4948240;29;20035;-83
2022/01/18 11:37:27;;;;;;;30.92;3.65;;;;;;;6.47;100.00;102640.25;4949965;29;20034;-84
2022/01/18 11:40:01;;;;;;;20.42;2.65;;;;;;;6.52;100.00;102637.19;4953002;29;20099;-82
2022/01/18 11:42:42;;;;;;;31.67;3.38;;;;;;;6.51;100.00;102633.66;4954215;29;20039;-84
2022/01/18 11:45:28;;;;;;;27.80;3.00;;;;;;;6.55;100.00;102621.72;4931999;29;20028;-84
2022/01/18 11:48:11;;;;;;;21.13;2.80;;;;;;;6.61;100.00;102616.84;4934684;29;20107;-84
2022/01/18 11:50:50;;;;;;;28.75;4.05;;;;;;;6.64;100.00;102621.94;4950484;29;20031;-84
2022/01/18 11:54:05;;;;;;;32.00;5.18;;;;;;;6.68;100.00;102624.22;4953410;29;20058;-84
2022/01/18 11:56:36;;;;;;;17.20;2.67;;;;;;;6.65;100.00;102623.63;4951680;29;20019;-83
2022/01/18 11:59:24;;;;;;;28.65;3.95;;;;;;;6.61;100.00;102614.19;4946644;29;20023;-84
2022/01/18 12:01:53;;;;;;;24.30;3.38;;;;;;;6.67;100.00;102622.53;4953936;29;20026;-85
2022/01/18 12:04:42;;;;;;;23.35;3.08;;;;;;;6.71;100.00;102625.81;4953028;29;20058;-84
2022/01/18 12:07:08;;;;;;;31.48;3.63;;;;;;;6.63;100.00;102623.78;4939606;29;20066;-85
2022/01/18 12:09:53;;;;;;;29.25;4.45;;;;;;;6.70;100.00;102635.66;4956194;29;20043;-84
2022/01/18 12:12:50;;;;;;;21.17;3.47;;;;;;;6.69;100.00;102635.78;4936697;29;20087;-85
2022/01/18 12:15:15;;;;;;;26.42;3.83;;;;;;;6.70;100.00;102633.00;4954920;29;20079;-85
2022/01/18 12:17:56;;;;;;;30.60;4.10;;;;;;;6.58;100.00;102618.81;4937858;29;20031;-81
2022/01/18 12:20:34;;;;;;;27.70;4.85;;;;;;;6.72;100.00;102638.19;4949148;29;20050;-84
2022/01/18 12:23:00;;;;;;;24.10;3.15;;;;;;;6.70;100.00;102624.13;4945472;29;20086;-84
2022/01/18 12:25:33;;;;;;;33.05;3.33;;;;;;;6.69;100.00;102625.94;4946537;29;20068;-85
2022/01/18 12:28:02;;;;;;;27.40;3.92;;;;;;;6.65;100.00;102631.66;4932256;29;20035;-84
2022/01/18 12:30:42;;;;;;;24.85;3.50;;;;;;;6.64;100.00;102620.13;4947419;29;20023;-83